createdAt,value
2023-04-09T00:02:47.259Z,7.23
2023-04-09T00:06:47.500Z,7.20
2023-04-09T00:10:47.996Z,6.97
2023-04-09T00:14:48.199Z,6.50
2023-04-09T00:18:52.058Z,7.00
2023-04-09T00:22:52.674Z,6.60
2023-04-09T00:26:53.664Z,6.73
2023-04-09T00:30:53.813Z,7.00
2023-04-09T00:34:56.925Z,6.80
2023-04-09T00:38:57.216Z,6.67
2023-04-09T00:42:57.438Z,7.27
2023-04-09T00:46:58.397Z,7.00
2023-04-09T00:51:01.210Z,7.97
2023-04-09T00:55:04.495Z,9.33
2023-04-09T00:59:05.667Z,8.90
2023-04-09T01:03:09.238Z,8.50
2023-04-09T01:07:23.647Z,8.63
2023-04-09T01:11:34.955Z,8.20
2023-04-09T01:15:42.177Z,8.23
2023-04-09T01:19:54.078Z,8.50
2023-04-09T01:24:12.826Z,9.47
2023-04-09T01:28:26.021Z,10.67
2023-04-09T01:32:32.571Z,10.07
2023-04-09T01:36:36.384Z,11.37
2023-04-09T01:40:36.768Z,10.80
2023-04-09T01:44:42.161Z,11.17
2023-04-09T01:48:43.217Z,11.23
2023-04-09T01:52:43.913Z,10.40
2023-04-09T01:56:45.739Z,12.37
2023-04-09T02:00:52.298Z,11.83
2023-04-09T02:04:58.799Z,11.90
2023-04-09T02:09:04.238Z,10.27
2023-04-09T02:13:08.680Z,10.30
2023-04-09T02:17:12.076Z,10.70
2023-04-09T02:21:14.135Z,10.83
2023-04-09T02:25:14.863Z,11.37
2023-04-09T02:29:15.128Z,11.23
2023-04-09T02:33:18.122Z,12.00
2023-04-09T02:37:18.475Z,12.43
2023-04-09T02:41:19.959Z,12.10
2023-04-09T02:45:20.287Z,11.90
2023-04-09T02:49:23.407Z,11.87
2023-04-09T02:53:24.348Z,12.17
2023-04-09T02:57:24.539Z,13.70
2023-04-09T03:01:24.865Z,12.53
2023-04-09T03:05:28.042Z,10.40
2023-04-09T03:09:29.161Z,10.40
2023-04-09T03:13:31.064Z,10.90
2023-04-09T03:17:32.232Z,10.80
2023-04-09T03:21:34.976Z,11.70
2023-04-09T03:25:35.902Z,12.43
2023-04-09T03:29:44.428Z,12.50
2023-04-09T03:33:44.826Z,9.97
2023-04-09T03:37:48.141Z,10.60
2023-04-09T03:41:51.595Z,10.87
2023-04-09T03:45:52.413Z,12.77
2023-04-09T03:49:56.783Z,10.77
2023-04-09T03:54:03.256Z,10.50
2023-04-09T03:58:04.327Z,11.80
2023-04-09T04:02:07.844Z,10.80
2023-04-09T04:06:12.683Z,11.90
2023-04-09T04:10:33.985Z,10.77
2023-04-09T04:14:34.693Z,10.90
2023-04-09T04:18:41.817Z,11.30
2023-04-09T04:22:42.432Z,12.30
2023-04-09T04:26:45.949Z,12.40
2023-04-09T04:30:50.446Z,11.77
2023-04-09T04:34:52.786Z,11.33
2023-04-09T04:39:00.010Z,11.23
2023-04-09T04:43:20.446Z,10.83
2023-04-09T04:47:22.286Z,11.07
2023-04-09T04:51:22.601Z,12.07
2023-04-09T04:55:39.715Z,10.90
2023-04-09T04:59:44.363Z,11.87
2023-04-09T05:03:46.759Z,11.03
2023-04-09T05:08:00.650Z,10.60
2023-04-09T05:12:01.465Z,10.03
2023-04-09T05:16:04.524Z,10.43
2023-04-09T05:20:07.645Z,10.20
2023-04-09T05:24:18.808Z,10.70
2023-04-09T05:28:19.473Z,11.27
2023-04-09T05:32:28.053Z,11.63
2023-04-09T05:36:29.418Z,14.63
2023-04-09T05:40:29.873Z,12.73
2023-04-09T05:44:30.409Z,17.63
2023-04-09T05:48:41.670Z,15.33
2023-04-09T05:52:41.984Z,14.30
2023-04-09T05:56:45.772Z,12.17
2023-04-09T06:00:46.241Z,12.27
2023-04-09T06:04:52.170Z,12.73
2023-04-09T06:08:52.380Z,12.43
2023-04-09T06:12:52.608Z,12.10
2023-04-09T06:16:52.767Z,13.93
2023-04-09T06:21:05.779Z,14.20
2023-04-09T06:25:06.824Z,14.77
2023-04-09T06:29:07.171Z,15.03
2023-04-09T06:33:07.420Z,15.87
2023-04-09T06:37:10.357Z,17.20
2023-04-09T06:41:12.922Z,17.03
2023-04-09T06:45:13.860Z,15.90
2023-04-09T06:49:13.980Z,15.90
2023-04-09T06:53:18.490Z,17.27
2023-04-09T06:57:18.711Z,18.07
2023-04-09T07:01:20.094Z,19.73
2023-04-09T07:05:20.485Z,18.10
2023-04-09T07:09:23.258Z,19.20
2023-04-09T07:13:23.570Z,19.10
2023-04-09T07:17:23.765Z,19.10
2023-04-09T07:21:23.910Z,18.13
2023-04-09T07:25:27.047Z,18.50
2023-04-09T07:29:27.623Z,18.80
2023-04-09T07:33:27.890Z,18.80
2023-04-09T07:37:29.004Z,19.23
2023-04-09T07:41:31.858Z,17.70
2023-04-09T07:45:32.121Z,17.93
2023-04-09T07:49:32.463Z,19.40
2023-04-09T07:53:32.609Z,19.47
2023-04-09T07:57:37.128Z,17.63
2023-04-09T08:01:39.838Z,18.63
2023-04-09T08:05:40.893Z,17.37
2023-04-09T08:09:41.226Z,18.37
2023-04-09T08:13:44.231Z,18.63
2023-04-09T08:17:44.594Z,16.53
2023-04-09T08:21:46.774Z,17.13
2023-04-09T08:25:47.012Z,16.30
2023-04-09T08:29:49.915Z,16.20
2023-04-09T08:33:50.131Z,16.35
2023-04-09T08:37:50.857Z,16.40
2023-04-09T08:41:51.302Z,15.75
2023-04-09T08:45:57.986Z,15.30
2023-04-09T08:49:58.264Z,15.52
2023-04-09T08:54:03.249Z,13.30
2023-04-09T08:58:07.527Z,14.32
2023-04-09T09:02:14.345Z,13.20
2023-04-09T09:06:25.246Z,13.88
2023-04-09T09:10:42.160Z,12.00
2023-04-09T09:14:42.425Z,12.68
2023-04-09T09:18:48.364Z,12.95
2023-04-09T09:22:56.859Z,11.18
2023-04-09T09:26:59.051Z,12.32
2023-04-09T09:31:12.171Z,12.50
2023-04-09T09:35:15.581Z,12.13
2023-04-09T09:39:17.891Z,12.55
2023-04-09T09:43:18.472Z,11.93
2023-04-09T09:47:21.757Z,9.90
2023-04-09T09:51:31.383Z,9.88
2023-04-09T09:55:35.132Z,9.77
2023-04-09T09:59:43.597Z,10.07
2023-04-09T10:03:48.457Z,9.27
2023-04-09T10:07:52.206Z,9.82
2023-04-09T10:11:52.877Z,9.30
2023-04-09T10:15:54.288Z,8.18
2023-04-09T10:20:04.484Z,9.00
2023-04-09T10:24:09.486Z,7.95
2023-04-09T10:28:21.090Z,8.60
2023-04-09T10:32:28.591Z,7.57
2023-04-09T10:36:29.462Z,9.25
2023-04-09T10:40:32.812Z,8.80
2023-04-09T10:44:36.220Z,8.77
2023-04-09T10:48:37.413Z,9.23
2023-04-09T10:52:37.624Z,7.82
2023-04-09T10:56:40.444Z,8.65
2023-04-09T11:00:43.662Z,9.45
2023-04-09T11:05:02.526Z,9.25
2023-04-09T11:09:05.351Z,9.55
2023-04-09T11:13:08.815Z,11.02
2023-04-09T11:17:09.376Z,9.95
2023-04-09T11:21:10.475Z,10.43
2023-04-09T11:25:11.689Z,10.85
2023-04-09T11:29:14.504Z,11.18
2023-04-09T11:33:15.621Z,10.18
2023-04-09T11:37:19.067Z,10.73
2023-04-09T11:41:19.261Z,10.57
2023-04-09T11:45:23.846Z,10.43
2023-04-09T11:49:25.215Z,10.48
2023-04-09T11:53:26.597Z,9.90
2023-04-09T11:57:26.736Z,9.25
2023-04-09T12:01:34.894Z,9.50
2023-04-09T12:05:40.611Z,9.40
2023-04-09T12:09:51.406Z,10.13
2023-04-09T12:13:51.576Z,9.57
2023-04-09T12:17:58.601Z,10.90
2023-04-09T12:21:59.627Z,9.82
2023-04-09T12:26:02.488Z,10.52
2023-04-09T12:30:02.841Z,9.52
2023-04-09T12:34:05.668Z,10.32
2023-04-09T12:38:05.937Z,9.50
2023-04-09T12:42:06.495Z,10.18
2023-04-09T12:46:07.234Z,10.52
2023-04-09T12:50:13.173Z,11.02
2023-04-09T12:54:13.376Z,11.77
2023-04-09T12:58:13.594Z,11.18
2023-04-09T13:02:15.366Z,10.15
2023-04-09T13:06:18.216Z,9.55
2023-04-09T13:10:18.589Z,9.40
2023-04-09T13:14:18.760Z,9.27
2023-04-09T13:18:18.898Z,9.02
2023-04-09T13:22:21.976Z,9.20
2023-04-09T13:26:22.115Z,7.80
2023-04-09T13:30:24.741Z,7.55
2023-04-09T13:34:25.072Z,7.95
2023-04-09T13:38:27.975Z,8.38
2023-04-09T13:42:28.152Z,8.68
2023-04-09T13:46:28.399Z,9.18
2023-04-09T13:50:28.875Z,8.38
2023-04-09T13:54:31.721Z,8.07
2023-04-09T13:58:31.840Z,8.95
2023-04-09T14:02:32.305Z,9.20
2023-04-09T14:06:32.732Z,9.02
2023-04-09T14:10:36.110Z,9.48
2023-04-09T14:14:36.217Z,9.20
2023-04-09T14:18:36.583Z,9.40
2023-04-09T14:22:36.798Z,8.85
2023-04-09T14:26:39.644Z,9.10
2023-04-09T14:30:39.864Z,8.07
2023-04-09T14:34:40.173Z,7.85
2023-04-09T14:38:40.929Z,7.65
2023-04-09T14:42:44.558Z,7.82
2023-04-09T14:46:45.670Z,7.90
2023-04-09T14:50:46.764Z,8.05
2023-04-09T14:54:47.377Z,8.02
2023-04-09T14:58:51.123Z,7.03
2023-04-09T15:02:51.728Z,7.90
2023-04-09T15:06:52.424Z,8.30
2023-04-09T15:10:52.635Z,8.00
2023-04-09T15:14:55.824Z,7.55
2023-04-09T15:18:58.998Z,8.45
2023-04-09T15:22:59.231Z,8.80
2023-04-09T15:26:59.705Z,8.73
2023-04-09T15:31:02.713Z,8.70
2023-04-09T15:35:02.962Z,7.82
2023-04-09T15:39:03.815Z,8.32
2023-04-09T15:43:05.311Z,7.40
2023-04-09T15:47:11.502Z,11.10
2023-04-09T15:51:13.890Z,11.00
2023-04-09T15:55:14.980Z,9.52
2023-04-09T15:59:17.929Z,9.37
2023-04-09T16:03:22.267Z,10.50
2023-04-09T16:07:22.919Z,11.13
2023-04-09T16:11:23.179Z,10.20
2023-04-09T16:15:26.005Z,12.50
2023-04-09T16:19:28.918Z,9.30
2023-04-09T16:23:30.931Z,9.70
2023-04-09T16:27:31.076Z,8.90
2023-04-09T16:31:31.260Z,8.80
2023-04-09T16:35:34.018Z,8.87
2023-04-09T16:39:34.474Z,8.40
2023-04-09T16:43:34.684Z,8.93
2023-04-09T16:47:35.075Z,10.05
2023-04-09T16:51:38.440Z,9.23
2023-04-09T16:55:38.964Z,8.90
2023-04-09T16:59:40.936Z,9.43
2023-04-09T17:03:41.603Z,8.50
2023-04-09T17:07:44.800Z,10.83
2023-04-09T17:11:44.939Z,12.23
2023-04-09T17:15:45.097Z,10.80
2023-04-09T17:19:45.326Z,8.53
2023-04-09T17:23:48.009Z,9.23
2023-04-09T17:27:48.152Z,8.50
2023-04-09T17:31:48.990Z,9.30
2023-04-09T17:35:53.236Z,8.70
2023-04-09T17:40:07.558Z,9.80
2023-04-09T17:44:11.055Z,9.30
2023-04-09T17:48:17.321Z,8.90
2023-04-09T17:52:17.877Z,9.90
2023-04-09T17:56:22.888Z,10.63
2023-04-09T18:00:23.429Z,13.37
2023-04-09T18:04:24.520Z,12.57
2023-04-09T18:08:25.471Z,11.17
2023-04-09T18:12:28.808Z,11.37
2023-04-09T18:16:30.551Z,16.20
2023-04-09T18:20:35.676Z,15.30
2023-04-09T18:24:42.400Z,14.80
2023-04-09T18:28:47.644Z,20.43
2023-04-09T18:32:52.037Z,20.40
2023-04-09T18:36:59.206Z,16.73
2023-04-09T18:41:04.517Z,29.97
2023-04-09T18:45:12.787Z,22.13
2023-04-09T18:49:18.235Z,20.70
2023-04-09T18:53:26.923Z,17.90
2023-04-09T18:57:38.230Z,16.13
2023-04-09T19:01:45.929Z,22.83
2023-04-09T19:05:46.870Z,18.83
2023-04-09T19:09:56.728Z,19.53
2023-04-09T19:13:59.950Z,17.07
2023-04-09T19:18:04.535Z,15.87
2023-04-09T19:22:05.412Z,17.23
2023-04-09T19:26:09.189Z,17.43
2023-04-09T19:30:13.572Z,22.43
2023-04-09T19:34:17.103Z,21.23
2023-04-09T19:38:18.406Z,21.23
2023-04-09T19:42:19.284Z,22.83
2023-04-09T19:46:20.019Z,22.03
2023-04-09T19:50:23.705Z,20.40
2023-04-09T19:54:25.330Z,20.50
2023-04-09T19:58:26.583Z,23.10
2023-04-09T20:02:28.830Z,21.67
2023-04-09T20:06:32.284Z,20.00
2023-04-09T20:10:35.596Z,17.60
2023-04-09T20:14:38.369Z,18.67
2023-04-09T20:18:39.251Z,18.70
2023-04-09T20:22:48.001Z,21.80
2023-04-09T20:26:50.248Z,25.50
2023-04-09T20:30:59.760Z,25.77
2023-04-09T20:35:00.332Z,23.03
2023-04-09T20:39:05.338Z,20.50
2023-04-09T20:43:09.150Z,20.70
2023-04-09T20:47:12.120Z,17.47
2023-04-09T20:51:19.328Z,19.77
2023-04-09T20:55:22.903Z,20.27
2023-04-09T20:59:25.250Z,19.37
2023-04-09T21:03:25.794Z,22.60
2023-04-09T21:07:27.594Z,19.97
2023-04-09T21:11:31.410Z,19.30
2023-04-09T21:15:32.195Z,23.33
2023-04-09T21:19:33.903Z,18.93
2023-04-09T21:23:35.626Z,18.30
2023-04-09T21:27:38.661Z,17.43
2023-04-09T21:31:39.783Z,16.20
2023-04-09T21:35:40.469Z,16.50
2023-04-09T21:39:41.608Z,14.93
2023-04-09T21:43:44.750Z,16.17
2023-04-09T21:47:45.803Z,18.80
2023-04-09T21:51:49.001Z,18.57
2023-04-09T21:55:49.715Z,18.70
2023-04-09T21:59:53.122Z,19.87
2023-04-09T22:03:53.638Z,20.73
2023-04-09T22:07:54.364Z,23.40
2023-04-09T22:11:55.013Z,23.00
2023-04-09T22:15:58.262Z,20.50
2023-04-09T22:19:58.851Z,19.93
2023-04-09T22:23:59.640Z,24.10
2023-04-09T22:28:00.348Z,24.57
2023-04-09T22:32:03.997Z,22.57
2023-04-09T22:36:04.390Z,24.77
2023-04-09T22:40:05.857Z,34.83
2023-04-09T22:44:06.906Z,33.33
2023-04-09T22:48:10.137Z,25.73
2023-04-09T22:52:11.582Z,17.30
2023-04-09T22:56:13.054Z,17.50
2023-04-09T23:00:15.112Z,15.33
2023-04-09T23:04:23.259Z,15.20
2023-04-09T23:08:23.911Z,15.77
2023-04-09T23:12:24.681Z,15.93
2023-04-09T23:16:25.589Z,15.03
2023-04-09T23:20:30.265Z,15.13
2023-04-09T23:24:31.201Z,14.63
2023-04-09T23:28:32.013Z,15.37
2023-04-09T23:32:32.671Z,15.70
2023-04-09T23:36:36.386Z,15.83
2023-04-09T23:40:36.757Z,15.13
2023-04-09T23:44:37.573Z,15.23
2023-04-09T23:48:38.007Z,14.50
2023-04-09T23:52:42.264Z,15.10
2023-04-09T23:56:44.281Z,14.93
